Leibhardt, New York
Current Conditions -  °F | °C
As of 8:54 PM on Friday 19 Dec 2014 (Local Time) from KMGJ Reporting Station
Few Clouds Few Clouds  
Wind Chill: 23°   Ceiling: Unl
Heat Index: 29°   Visibility: 10mi
Dew Point: 20°   Wind: 6mph
Humidity: 69%   Direction: 330°NNW
Pressure: 30.12"   Gusts: NA
Location:  41.8083°N, 74.2318°W
Report Text: KMGJ 200154Z AUTO 33005KT 10SM FEW031 M02/M07 A3012 RMK AO2 SLP205 T10171067 TSNO
Loading
Personal Weather Stations






























Interactive Weather Map New forecast layout! Learn more

10-Day Weather Forecast

Advertisements
Track Severe Weather on mobile